sensor_id;sensor_type;location;lat;lon;timestamp;P1;durP1;ratioP1;P2;durP2;ratioP2
15673;SDS011;7937;48.090;16.212;2023-04-01T00:00:14;1.50;;;0.60;;
15673;SDS011;7937;48.090;16.212;2023-04-01T00:03:16;2.03;;;0.60;;
15673;SDS011;7937;48.090;16.212;2023-04-01T00:06:19;3.13;;;0.63;;
15673;SDS011;7937;48.090;16.212;2023-04-01T00:09:21;1.80;;;0.60;;
15673;SDS011;7937;48.090;16.212;2023-04-01T00:12:23;2.67;;;0.87;;
15673;SDS011;7937;48.090;16.212;2023-04-01T00:15:26;3.30;;;0.70;;
15673;SDS011;7937;48.090;16.212;2023-04-01T00:18:28;0.70;;;0.50;;
15673;SDS011;7937;48.090;16.212;2023-04-01T00:21:30;1.30;;;0.70;;
15673;SDS011;7937;48.090;16.212;2023-04-01T00:24:33;1.33;;;0.77;;
15673;SDS011;7937;48.090;16.212;2023-04-01T00:27:35;2.27;;;0.60;;
15673;SDS011;7937;48.090;16.212;2023-04-01T00:30:37;2.70;;;0.77;;
15673;SDS011;7937;48.090;16.212;2023-04-01T00:33:40;3.53;;;0.60;;
15673;SDS011;7937;48.090;16.212;2023-04-01T00:36:43;0.67;;;0.50;;
15673;SDS011;7937;48.090;16.212;2023-04-01T00:39:45;1.30;;;0.70;;
15673;SDS011;7937;48.090;16.212;2023-04-01T00:42:47;3.00;;;1.07;;
15673;SDS011;7937;48.090;16.212;2023-04-01T00:45:49;1.20;;;0.50;;
15673;SDS011;7937;48.090;16.212;2023-04-01T00:48:53;1.47;;;0.83;;
15673;SDS011;7937;48.090;16.212;2023-04-01T00:51:57;4.70;;;0.80;;
15673;SDS011;7937;48.090;16.212;2023-04-01T00:55:03;2.17;;;0.73;;
15673;SDS011;7937;48.090;16.212;2023-04-01T00:58:10;2.53;;;0.70;;
15673;SDS011;7937;48.090;16.212;2023-04-01T01:01:16;1.57;;;0.60;;
15673;SDS011;7937;48.090;16.212;2023-04-01T01:04:28;1.53;;;0.80;;
15673;SDS011;7937;48.090;16.212;2023-04-01T01:10:34;2.87;;;1.03;;
15673;SDS011;7937;48.090;16.212;2023-04-01T01:13:43;1.90;;;0.83;;
15673;SDS011;7937;48.090;16.212;2023-04-01T01:16:58;3.90;;;0.83;;
15673;SDS011;7937;48.090;16.212;2023-04-01T01:27:10;0.57;;;0.50;;
15673;SDS011;7937;48.090;16.212;2023-04-01T01:30:36;3.37;;;1.03;;
15673;SDS011;7937;48.090;16.212;2023-04-01T01:34:14;1.60;;;0.60;;
15673;SDS011;7937;48.090;16.212;2023-04-01T01:37:24;1.30;;;0.67;;
15673;SDS011;7937;48.090;16.212;2023-04-01T01:40:29;2.00;;;0.90;;
15673;SDS011;7937;48.090;16.212;2023-04-01T01:43:42;1.93;;;0.60;;
15673;SDS011;7937;48.090;16.212;2023-04-01T01:46:47;3.33;;;0.93;;
15673;SDS011;7937;48.090;16.212;2023-04-01T01:49:51;4.20;;;0.80;;
15673;SDS011;7937;48.090;16.212;2023-04-01T01:53:09;2.33;;;0.80;;
15673;SDS011;7937;48.090;16.212;2023-04-01T01:56:13;3.20;;;0.93;;
15673;SDS011;7937;48.090;16.212;2023-04-01T01:59:17;3.50;;;0.60;;
15673;SDS011;7937;48.090;16.212;2023-04-01T02:02:22;1.37;;;0.70;;
15673;SDS011;7937;48.090;16.212;2023-04-01T02:05:27;2.60;;;0.87;;
15673;SDS011;7937;48.090;16.212;2023-04-01T02:12:06;4.07;;;1.17;;
15673;SDS011;7937;48.090;16.212;2023-04-01T02:15:14;3.23;;;0.80;;
15673;SDS011;7937;48.090;16.212;2023-04-01T02:18:18;1.70;;;0.70;;
15673;SDS011;7937;48.090;16.212;2023-04-01T02:21:22;3.17;;;0.77;;
15673;SDS011;7937;48.090;16.212;2023-04-01T02:24:27;1.27;;;0.60;;
15673;SDS011;7937;48.090;16.212;2023-04-01T02:27:32;0.90;;;0.60;;
15673;SDS011;7937;48.090;16.212;2023-04-01T02:30:35;2.53;;;0.70;;
15673;SDS011;7937;48.090;16.212;2023-04-01T02:33:40;4.50;;;0.97;;
15673;SDS011;7937;48.090;16.212;2023-04-01T02:36:43;4.33;;;0.93;;
15673;SDS011;7937;48.090;16.212;2023-04-01T02:39:46;5.20;;;1.17;;
15673;SDS011;7937;48.090;16.212;2023-04-01T02:42:48;3.67;;;0.80;;
15673;SDS011;7937;48.090;16.212;2023-04-01T02:45:50;2.00;;;0.77;;
15673;SDS011;7937;48.090;16.212;2023-04-01T02:48:52;1.30;;;0.73;;
15673;SDS011;7937;48.090;16.212;2023-04-01T02:51:55;2.47;;;0.80;;
15673;SDS011;7937;48.090;16.212;2023-04-01T02:54:57;2.57;;;0.73;;
15673;SDS011;7937;48.090;16.212;2023-04-01T02:57:59;3.20;;;1.13;;
15673;SDS011;7937;48.090;16.212;2023-04-01T03:01:03;2.40;;;0.70;;
15673;SDS011;7937;48.090;16.212;2023-04-01T03:04:05;2.87;;;1.00;;
15673;SDS011;7937;48.090;16.212;2023-04-01T03:07:07;3.23;;;1.03;;
15673;SDS011;7937;48.090;16.212;2023-04-01T03:10:11;2.70;;;0.90;;
15673;SDS011;7937;48.090;16.212;2023-04-01T03:13:13;1.63;;;0.73;;
15673;SDS011;7937;48.090;16.212;2023-04-01T03:16:16;2.83;;;0.70;;
15673;SDS011;7937;48.090;16.212;2023-04-01T03:19:18;4.23;;;0.70;;
15673;SDS011;7937;48.090;16.212;2023-04-01T03:22:21;4.77;;;0.80;;
15673;SDS011;7937;48.090;16.212;2023-04-01T03:25:23;1.70;;;0.70;;
15673;SDS011;7937;48.090;16.212;2023-04-01T03:28:25;1.60;;;0.70;;
15673;SDS011;7937;48.090;16.212;2023-04-01T03:31:27;2.50;;;0.50;;
15673;SDS011;7937;48.090;16.212;2023-04-01T03:34:31;2.27;;;0.70;;
15673;SDS011;7937;48.090;16.212;2023-04-01T03:37:33;3.63;;;0.80;;
15673;SDS011;7937;48.090;16.212;2023-04-01T03:40:35;1.77;;;0.70;;
15673;SDS011;7937;48.090;16.212;2023-04-01T03:43:40;1.27;;;0.40;;
15673;SDS011;7937;48.090;16.212;2023-04-01T03:46:42;1.70;;;0.60;;
15673;SDS011;7937;48.090;16.212;2023-04-01T03:49:45;0.87;;;0.53;;
15673;SDS011;7937;48.090;16.212;2023-04-01T03:52:47;2.90;;;0.70;;
15673;SDS011;7937;48.090;16.212;2023-04-01T03:55:49;1.50;;;0.70;;
15673;SDS011;7937;48.090;16.212;2023-04-01T03:58:52;1.27;;;0.70;;
15673;SDS011;7937;48.090;16.212;2023-04-01T04:01:54;1.47;;;0.50;;
15673;SDS011;7937;48.090;16.212;2023-04-01T04:04:57;1.67;;;0.60;;
15673;SDS011;7937;48.090;16.212;2023-04-01T04:08:02;2.53;;;0.50;;
15673;SDS011;7937;48.090;16.212;2023-04-01T04:11:05;1.40;;;0.50;;
15673;SDS011;7937;48.090;16.212;2023-04-01T04:14:10;2.00;;;0.77;;
15673;SDS011;7937;48.090;16.212;2023-04-01T04:17:12;5.33;;;0.60;;
15673;SDS011;7937;48.090;16.212;2023-04-01T04:20:18;1.03;;;0.50;;
15673;SDS011;7937;48.090;16.212;2023-04-01T04:23:20;1.33;;;0.60;;
15673;SDS011;7937;48.090;16.212;2023-04-01T04:26:22;3.07;;;0.90;;
15673;SDS011;7937;48.090;16.212;2023-04-01T04:29:30;2.40;;;0.67;;
15673;SDS011;7937;48.090;16.212;2023-04-01T04:32:34;1.50;;;0.60;;
15673;SDS011;7937;48.090;16.212;2023-04-01T04:35:37;1.37;;;0.63;;
15673;SDS011;7937;48.090;16.212;2023-04-01T04:38:39;1.47;;;0.70;;
15673;SDS011;7937;48.090;16.212;2023-04-01T04:41:41;1.47;;;0.60;;
15673;SDS011;7937;48.090;16.212;2023-04-01T04:44:43;3.80;;;0.90;;
15673;SDS011;7937;48.090;16.212;2023-04-01T04:47:45;2.23;;;0.40;;
15673;SDS011;7937;48.090;16.212;2023-04-01T04:50:48;2.33;;;0.60;;
15673;SDS011;7937;48.090;16.212;2023-04-01T04:53:54;2.53;;;0.70;;
15673;SDS011;7937;48.090;16.212;2023-04-01T04:57:05;1.27;;;0.40;;
15673;SDS011;7937;48.090;16.212;2023-04-01T05:00:14;2.53;;;0.63;;
15673;SDS011;7937;48.090;16.212;2023-04-01T05:03:37;1.77;;;0.60;;
15673;SDS011;7937;48.090;16.212;2023-04-01T05:06:39;1.63;;;0.60;;
15673;SDS011;7937;48.090;16.212;2023-04-01T05:09:41;1.00;;;0.57;;
15673;SDS011;7937;48.090;16.212;2023-04-01T05:12:43;0.97;;;0.50;;
15673;SDS011;7937;48.090;16.212;2023-04-01T05:15:51;0.60;;;0.40;;
15673;SDS011;7937;48.090;16.212;2023-04-01T05:18:53;1.17;;;0.33;;
15673;SDS011;7937;48.090;16.212;2023-04-01T05:21:55;1.50;;;0.53;;
15673;SDS011;7937;48.090;16.212;2023-04-01T05:24:57;0.93;;;0.30;;
15673;SDS011;7937;48.090;16.212;2023-04-01T05:28:00;1.00;;;0.50;;
15673;SDS011;7937;48.090;16.212;2023-04-01T05:31:04;0.87;;;0.40;;
15673;SDS011;7937;48.090;16.212;2023-04-01T05:34:13;1.63;;;0.50;;
15673;SDS011;7937;48.090;16.212;2023-04-01T05:37:15;2.07;;;0.50;;
15673;SDS011;7937;48.090;16.212;2023-04-01T05:40:17;0.63;;;0.30;;
15673;SDS011;7937;48.090;16.212;2023-04-01T05:43:19;2.57;;;0.50;;
15673;SDS011;7937;48.090;16.212;2023-04-01T05:46:23;1.37;;;0.60;;
15673;SDS011;7937;48.090;16.212;2023-04-01T05:49:32;1.00;;;0.40;;
15673;SDS011;7937;48.090;16.212;2023-04-01T05:52:36;0.87;;;0.43;;
15673;SDS011;7937;48.090;16.212;2023-04-01T05:55:39;1.13;;;0.40;;
15673;SDS011;7937;48.090;16.212;2023-04-01T05:58:41;0.70;;;0.50;;
15673;SDS011;7937;48.090;16.212;2023-04-01T06:01:43;0.67;;;0.30;;
15673;SDS011;7937;48.090;16.212;2023-04-01T06:04:46;0.73;;;0.50;;
15673;SDS011;7937;48.090;16.212;2023-04-01T06:07:48;1.50;;;0.60;;
15673;SDS011;7937;48.090;16.212;2023-04-01T06:17:32;1.77;;;0.60;;
15673;SDS011;7937;48.090;16.212;2023-04-01T06:24:31;0.93;;;0.50;;
15673;SDS011;7937;48.090;16.212;2023-04-01T06:28:06;1.43;;;0.60;;
15673;SDS011;7937;48.090;16.212;2023-04-01T06:31:22;1.53;;;0.50;;
15673;SDS011;7937;48.090;16.212;2023-04-01T06:35:01;1.80;;;0.57;;
15673;SDS011;7937;48.090;16.212;2023-04-01T06:49:41;0.80;;;0.40;;
15673;SDS011;7937;48.090;16.212;2023-04-01T06:53:06;1.10;;;0.60;;
15673;SDS011;7937;48.090;16.212;2023-04-01T06:56:37;0.77;;;0.40;;
15673;SDS011;7937;48.090;16.212;2023-04-01T06:59:49;1.57;;;0.60;;
15673;SDS011;7937;48.090;16.212;2023-04-01T07:03:00;1.63;;;0.60;;
15673;SDS011;7937;48.090;16.212;2023-04-01T07:06:24;0.73;;;0.50;;
15673;SDS011;7937;48.090;16.212;2023-04-01T07:09:37;1.60;;;0.40;;
15673;SDS011;7937;48.090;16.212;2023-04-01T07:13:36;1.97;;;0.70;;
15673;SDS011;7937;48.090;16.212;2023-04-01T07:23:40;1.17;;;0.60;;
15673;SDS011;7937;48.090;16.212;2023-04-01T07:27:18;1.37;;;0.53;;
15673;SDS011;7937;48.090;16.212;2023-04-01T07:30:21;0.70;;;0.40;;
15673;SDS011;7937;48.090;16.212;2023-04-01T07:36:54;1.93;;;0.73;;
15673;SDS011;7937;48.090;16.212;2023-04-01T07:40:16;3.07;;;1.50;;
15673;SDS011;7937;48.090;16.212;2023-04-01T07:44:10;2.83;;;0.80;;
15673;SDS011;7937;48.090;16.212;2023-04-01T07:47:34;1.50;;;0.60;;
15673;SDS011;7937;48.090;16.212;2023-04-01T07:50:55;0.93;;;0.60;;
15673;SDS011;7937;48.090;16.212;2023-04-01T07:57:23;2.20;;;0.77;;
15673;SDS011;7937;48.090;16.212;2023-04-01T08:00:42;1.10;;;0.57;;
15673;SDS011;7937;48.090;16.212;2023-04-01T08:04:11;1.93;;;0.50;;
15673;SDS011;7937;48.090;16.212;2023-04-01T08:07:18;2.33;;;0.67;;
15673;SDS011;7937;48.090;16.212;2023-04-01T08:10:56;1.27;;;0.57;;
15673;SDS011;7937;48.090;16.212;2023-04-01T08:21:44;1.30;;;0.50;;
15673;SDS011;7937;48.090;16.212;2023-04-01T08:24:51;1.47;;;0.57;;
15673;SDS011;7937;48.090;16.212;2023-04-01T08:28:03;0.33;;;0.30;;
15673;SDS011;7937;48.090;16.212;2023-04-01T08:34:32;0.40;;;0.40;;
15673;SDS011;7937;48.090;16.212;2023-04-01T08:37:45;0.77;;;0.30;;
15673;SDS011;7937;48.090;16.212;2023-04-01T08:40:58;0.87;;;0.40;;
15673;SDS011;7937;48.090;16.212;2023-04-01T08:54:46;0.87;;;0.30;;
15673;SDS011;7937;48.090;16.212;2023-04-01T09:15:35;1.37;;;0.50;;
15673;SDS011;7937;48.090;16.212;2023-04-01T09:28:20;0.83;;;0.50;;
15673;SDS011;7937;48.090;16.212;2023-04-01T09:35:23;0.30;;;0.27;;
15673;SDS011;7937;48.090;16.212;2023-04-01T09:38:31;0.70;;;0.43;;
15673;SDS011;7937;48.090;16.212;2023-04-01T09:41:45;0.53;;;0.33;;
15673;SDS011;7937;48.090;16.212;2023-04-01T09:52:25;0.83;;;0.30;;
15673;SDS011;7937;48.090;16.212;2023-04-01T09:55:48;0.30;;;0.30;;
15673;SDS011;7937;48.090;16.212;2023-04-01T10:12:27;0.63;;;0.30;;
15673;SDS011;7937;48.090;16.212;2023-04-01T10:19:49;0.20;;;0.20;;
15673;SDS011;7937;48.090;16.212;2023-04-01T10:22:48;0.40;;;0.30;;
15673;SDS011;7937;48.090;16.212;2023-04-01T10:26:06;1.47;;;0.40;;
15673;SDS011;7937;48.090;16.212;2023-04-01T10:33:23;0.57;;;0.30;;
15673;SDS011;7937;48.090;16.212;2023-04-01T10:36:50;1.40;;;0.30;;
15673;SDS011;7937;48.090;16.212;2023-04-01T10:54:46;0.40;;;0.20;;
15673;SDS011;7937;48.090;16.212;2023-04-01T11:16:56;0.20;;;0.20;;
15673;SDS011;7937;48.090;16.212;2023-04-01T11:23:29;0.23;;;0.23;;
15673;SDS011;7937;48.090;16.212;2023-04-01T11:41:41;1.63;;;0.30;;
15673;SDS011;7937;48.090;16.212;2023-04-01T11:45:10;0.20;;;0.20;;
15673;SDS011;7937;48.090;16.212;2023-04-01T11:48:40;1.23;;;0.30;;
15673;SDS011;7937;48.090;16.212;2023-04-01T11:52:20;0.40;;;0.30;;
15673;SDS011;7937;48.090;16.212;2023-04-01T11:55:47;0.60;;;0.20;;
15673;SDS011;7937;48.090;16.212;2023-04-01T12:08:54;0.37;;;0.27;;
15673;SDS011;7937;48.090;16.212;2023-04-01T12:12:22;2.27;;;0.57;;
15673;SDS011;7937;48.090;16.212;2023-04-01T12:19:25;0.30;;;0.20;;
15673;SDS011;7937;48.090;16.212;2023-04-01T12:50:19;0.60;;;0.37;;
15673;SDS011;7937;48.090;16.212;2023-04-01T12:53:36;0.67;;;0.50;;
15673;SDS011;7937;48.090;16.212;2023-04-01T12:56:54;0.30;;;0.30;;
15673;SDS011;7937;48.090;16.212;2023-04-01T13:07:29;0.50;;;0.50;;
15673;SDS011;7937;48.090;16.212;2023-04-01T13:10:46;1.17;;;0.30;;
15673;SDS011;7937;48.090;16.212;2023-04-01T13:14:37;0.40;;;0.30;;
15673;SDS011;7937;48.090;16.212;2023-04-01T13:27:55;0.60;;;0.60;;
15673;SDS011;7937;48.090;16.212;2023-04-01T13:38:08;0.20;;;0.20;;
15673;SDS011;7937;48.090;16.212;2023-04-01T13:45:00;0.33;;;0.20;;
15673;SDS011;7937;48.090;16.212;2023-04-01T14:01:41;0.60;;;0.30;;
15673;SDS011;7937;48.090;16.212;2023-04-01T14:41:41;2.53;;;0.50;;
15673;SDS011;7937;48.090;16.212;2023-04-01T14:55:33;1.60;;;0.50;;
15673;SDS011;7937;48.090;16.212;2023-04-01T14:58:47;0.30;;;0.20;;
15673;SDS011;7937;48.090;16.212;2023-04-01T15:26:51;0.30;;;0.30;;
15673;SDS011;7937;48.090;16.212;2023-04-01T15:30:00;0.33;;;0.20;;
15673;SDS011;7937;48.090;16.212;2023-04-01T15:36:53;0.27;;;0.27;;
15673;SDS011;7937;48.090;16.212;2023-04-01T15:43:53;0.47;;;0.30;;
15673;SDS011;7937;48.090;16.212;2023-04-01T15:46:55;0.30;;;0.30;;
15673;SDS011;7937;48.090;16.212;2023-04-01T15:50:11;0.50;;;0.40;;
15673;SDS011;7937;48.090;16.212;2023-04-01T15:57:25;0.93;;;0.30;;
15673;SDS011;7937;48.090;16.212;2023-04-01T16:00:31;1.27;;;0.30;;
15673;SDS011;7937;48.090;16.212;2023-04-01T16:07:27;2.07;;;0.40;;
15673;SDS011;7937;48.090;16.212;2023-04-01T16:20:49;0.57;;;0.33;;
15673;SDS011;7937;48.090;16.212;2023-04-01T16:30:35;0.30;;;0.20;;
15673;SDS011;7937;48.090;16.212;2023-04-01T16:33:50;0.50;;;0.30;;
15673;SDS011;7937;48.090;16.212;2023-04-01T16:37:06;0.23;;;0.23;;
15673;SDS011;7937;48.090;16.212;2023-04-01T16:40:37;0.73;;;0.30;;
15673;SDS011;7937;48.090;16.212;2023-04-01T16:46:57;0.50;;;0.30;;
15673;SDS011;7937;48.090;16.212;2023-04-01T16:50:22;0.83;;;0.30;;
15673;SDS011;7937;48.090;16.212;2023-04-01T16:56:49;0.53;;;0.30;;
15673;SDS011;7937;48.090;16.212;2023-04-01T17:00:00;0.23;;;0.20;;
15673;SDS011;7937;48.090;16.212;2023-04-01T17:03:38;0.27;;;0.27;;
15673;SDS011;7937;48.090;16.212;2023-04-01T17:06:49;1.30;;;0.20;;
15673;SDS011;7937;48.090;16.212;2023-04-01T17:16:42;0.17;;;0.17;;
15673;SDS011;7937;48.090;16.212;2023-04-01T17:26:46;0.30;;;0.30;;
15673;SDS011;7937;48.090;16.212;2023-04-01T17:36:59;0.57;;;0.20;;
15673;SDS011;7937;48.090;16.212;2023-04-01T17:40:15;0.20;;;0.20;;
15673;SDS011;7937;48.090;16.212;2023-04-01T17:54:10;0.27;;;0.27;;
15673;SDS011;7937;48.090;16.212;2023-04-01T17:57:46;0.20;;;0.20;;
15673;SDS011;7937;48.090;16.212;2023-04-01T18:04:25;0.73;;;0.50;;
15673;SDS011;7937;48.090;16.212;2023-04-01T18:11:11;1.00;;;0.80;;
15673;SDS011;7937;48.090;16.212;2023-04-01T18:21:35;0.30;;;0.30;;
15673;SDS011;7937;48.090;16.212;2023-04-01T18:24:59;0.20;;;0.20;;
15673;SDS011;7937;48.090;16.212;2023-04-01T18:28:32;1.60;;;0.20;;
15673;SDS011;7937;48.090;16.212;2023-04-01T18:31:51;0.20;;;0.20;;
15673;SDS011;7937;48.090;16.212;2023-04-01T18:38:47;0.30;;;0.20;;
15673;SDS011;7937;48.090;16.212;2023-04-01T18:42:16;0.70;;;0.30;;
15673;SDS011;7937;48.090;16.212;2023-04-01T18:45:49;0.20;;;0.20;;
15673;SDS011;7937;48.090;16.212;2023-04-01T18:52:27;0.73;;;0.30;;
15673;SDS011;7937;48.090;16.212;2023-04-01T18:55:52;2.33;;;0.30;;
15673;SDS011;7937;48.090;16.212;2023-04-01T18:59:08;0.57;;;0.33;;
15673;SDS011;7937;48.090;16.212;2023-04-01T19:02:34;0.20;;;0.20;;
15673;SDS011;7937;48.090;16.212;2023-04-01T19:05:44;0.30;;;0.30;;
15673;SDS011;7937;48.090;16.212;2023-04-01T19:08:51;0.63;;;0.30;;
15673;SDS011;7937;48.090;16.212;2023-04-01T19:22:14;0.30;;;0.30;;
15673;SDS011;7937;48.090;16.212;2023-04-01T19:25:55;0.20;;;0.20;;
15673;SDS011;7937;48.090;16.212;2023-04-01T19:29:47;0.10;;;0.10;;
15673;SDS011;7937;48.090;16.212;2023-04-01T19:32:43;1.60;;;0.20;;
15673;SDS011;7937;48.090;16.212;2023-04-01T19:36:21;0.20;;;0.20;;
15673;SDS011;7937;48.090;16.212;2023-04-01T19:46:36;0.20;;;0.20;;
15673;SDS011;7937;48.090;16.212;2023-04-01T19:50:17;0.20;;;0.20;;
15673;SDS011;7937;48.090;16.212;2023-04-01T19:53:40;0.20;;;0.20;;
15673;SDS011;7937;48.090;16.212;2023-04-01T20:03:58;0.80;;;0.30;;
15673;SDS011;7937;48.090;16.212;2023-04-01T20:13:48;1.00;;;0.20;;
15673;SDS011;7937;48.090;16.212;2023-04-01T20:20:33;1.23;;;0.30;;
15673;SDS011;7937;48.090;16.212;2023-04-01T20:23:41;0.83;;;0.27;;
15673;SDS011;7937;48.090;16.212;2023-04-01T20:26:51;0.20;;;0.20;;
15673;SDS011;7937;48.090;16.212;2023-04-01T20:30:24;0.27;;;0.27;;
15673;SDS011;7937;48.090;16.212;2023-04-01T20:37:32;0.40;;;0.40;;
15673;SDS011;7937;48.090;16.212;2023-04-01T20:40:38;0.53;;;0.20;;
15673;SDS011;7937;48.090;16.212;2023-04-01T20:50:45;0.30;;;0.30;;
15673;SDS011;7937;48.090;16.212;2023-04-01T21:00:33;0.87;;;0.20;;
15673;SDS011;7937;48.090;16.212;2023-04-01T21:07:33;0.20;;;0.20;;
15673;SDS011;7937;48.090;16.212;2023-04-01T21:10:42;0.30;;;0.30;;
15673;SDS011;7937;48.090;16.212;2023-04-01T21:44:46;0.60;;;0.33;;
15673;SDS011;7937;48.090;16.212;2023-04-01T21:58:38;0.23;;;0.23;;
15673;SDS011;7937;48.090;16.212;2023-04-01T22:08:12;0.20;;;0.20;;
15673;SDS011;7937;48.090;16.212;2023-04-01T22:11:47;0.30;;;0.20;;
15673;SDS011;7937;48.090;16.212;2023-04-01T22:21:38;0.60;;;0.30;;
15673;SDS011;7937;48.090;16.212;2023-04-01T22:27:58;0.33;;;0.30;;
15673;SDS011;7937;48.090;16.212;2023-04-01T22:31:08;0.27;;;0.20;;
15673;SDS011;7937;48.090;16.212;2023-04-01T22:34:37;0.20;;;0.20;;
15673;SDS011;7937;48.090;16.212;2023-04-01T22:37:58;0.20;;;0.20;;
15673;SDS011;7937;48.090;16.212;2023-04-01T22:44:32;0.30;;;0.27;;
15673;SDS011;7937;48.090;16.212;2023-04-01T22:47:49;0.67;;;0.40;;
15673;SDS011;7937;48.090;16.212;2023-04-01T22:54:47;0.30;;;0.20;;
15673;SDS011;7937;48.090;16.212;2023-04-01T23:01:07;0.33;;;0.30;;
15673;SDS011;7937;48.090;16.212;2023-04-01T23:04:17;0.33;;;0.30;;
15673;SDS011;7937;48.090;16.212;2023-04-01T23:07:37;0.10;;;0.10;;
15673;SDS011;7937;48.090;16.212;2023-04-01T23:11:02;0.20;;;0.20;;
15673;SDS011;7937;48.090;16.212;2023-04-01T23:17:28;1.13;;;0.37;;
15673;SDS011;7937;48.090;16.212;2023-04-01T23:27:21;0.30;;;0.30;;
15673;SDS011;7937;48.090;16.212;2023-04-01T23:33:41;0.30;;;0.30;;
15673;SDS011;7937;48.090;16.212;2023-04-01T23:36:46;0.23;;;0.20;;
15673;SDS011;7937;48.090;16.212;2023-04-01T23:42:54;1.00;;;0.47;;
15673;SDS011;7937;48.090;16.212;2023-04-01T23:45:58;0.30;;;0.30;;
15673;SDS011;7937;48.090;16.212;2023-04-01T23:49:04;0.53;;;0.30;;
15673;SDS011;7937;48.090;16.212;2023-04-01T23:52:24;1.83;;;1.03;;
15673;SDS011;7937;48.090;16.212;2023-04-01T23:55:30;0.40;;;0.30;;
